x

8447387 - Borden Flats Light At Fall River, Ma (bltm3) Weather Station

8:54 - Thu 29th Jun 2017 All times are EDT. -4 hours from GMT.

  • Wind
    10mph, 11mph gusts
  • Ar Temp 69°f
  • Sea Pressure 1020.2mb
  • 8447387 - Borden Flats Light At Fall River, Ma
  • 8447387 - Borden Flats Light At Fall River, Ma

More Historic Weather Station data

Upgrade to MSW Pro to gain access to the past 30 days of data for over 8000 Wavebouys and Weather Stations around the globe.

Join Pro

Comparision Forecast

View Surf forecast
   
Qui 06/29 8:54 10 11 mph 1020.2mb 69f
8:48 9 10 mph 1020.2mb 69f
8:42 10 11 mph 1020.2mb 68f
8:36 9 10 mph 1020.2mb 68f
8:30 8 10 mph 1020.2mb 68f
8:24 10 11 mph 1020.1mb 69f
8:18 10 13 mph 1020.1mb 69f
8:12 13 14 mph 1020.2mb 68f
8:06 10 13 mph 1020.1mb 68f
8:00 11 14 mph 1020.2mb 68f
7:54 13 14 mph 1020.1mb 68f
7:48 11 13 mph 1020mb 68f
7:42 11 14 mph 1019.9mb 68f
7:36 13 14 mph 1019.9mb 68f
7:30 13 15 mph 1020mb 68f
7:24 13 14 mph 1020mb 68f
7:18 13 15 mph 1019.9mb 68f
7:12 13 15 mph 1019.9mb 68f
7:06 13 16 mph 1020mb 68f
7:00 15 17 mph 1020mb 68f
6:54 14 16 mph 1020mb 68f
6:48 14 16 mph 1020mb 68f
6:42 15 17 mph 1020mb 68f
6:36 11 16 mph 1020mb 67f
6:30 10 11 mph 1019.9mb 67f
6:24 7 8 mph 1019.9mb 67f
6:18 7 8 mph 1019.8mb 67f
6:12 8 11 mph 1019.8mb 67f
6:06 7 9 mph 1019.8mb 67f
6:00 10 14 mph 1019.7mb 68f
5:54 11 14 mph 1019.7mb 68f
5:48 11 14 mph 1019.6mb 68f
5:42 11 14 mph 1019.6mb 68f
5:36 11 14 mph 1019.6mb 67f
5:30 11 14 mph 1019.5mb 67f
5:24 13 15 mph 1019.5mb 67f
5:18 11 15 mph 1019.4mb 67f
5:12 11 14 mph 1019.4mb 67f
5:06 11 13 mph 1019.4mb 67f
5:00 9 14 mph 1019.4mb 67f
4:54 9 14 mph 1019.3mb 67f
4:48 7 13 mph 1019.2mb 67f
4:42 7 10 mph 1019.2mb 66f
4:36 6 9 mph 1019.1mb 66f
4:30 7 8 mph 1019mb 66f
4:24 8 10 mph 1019.1mb 66f
4:18 6 8 mph 1019.1mb 66f
4:12 5 7 mph 1019.1mb 66f
4:06 5 7 mph 1019.1mb 67f
4:00 5 7 mph 1019.1mb 67f
3:54 7 11 mph 1019.1mb 67f
3:48 8 11 mph 1019.1mb 67f
3:42 9 11 mph 1019mb 67f
3:36 10 13 mph 1019.1mb 67f
3:30 11 14 mph 1019mb 67f
3:24 11 15 mph 1019mb 67f
3:18 14 15 mph 1018.9mb 67f
3:12 13 15 mph 1018.9mb 67f
3:06 6 7 mph 1018.9mb 66f
3:00 6 7 mph 1018.9mb 66f
2:18 9 11 mph 1018.5mb 67f
2:12 8 9 mph 1018.5mb 67f
2:06 7 8 mph 1018.6mb 67f
2:00 6 8 mph 1018.6mb 67f
1:54 6 7 mph 1018.6mb 67f
1:48 5 6 mph 1018.6mb -
1:42 5 6 mph 1018.7mb -
1:36 5 7 mph 1018.8mb -
1:30 3 5 mph 1018.8mb 67f
1:24 3 6 mph 1018.8mb 67f
1:18 3 6 mph 1018.8mb 67f
1:12 5 6 mph 1018.8mb 67f
1:06 6 10 mph 1018.8mb 68f
1:00 10 14 mph 1018.8mb 68f
12:54 11 14 mph 1018.9mb 68f
12:48 14 15 mph 1018.9mb 68f
12:42 15 18 mph 1018.9mb 68f
12:36 14 16 mph 1019mb 68f
12:30 15 17 mph 1019mb 68f
12:24 14 18 mph 1019mb 68f
12:18 14 16 mph 1018.9mb 68f
12:12 15 18 mph 1019mb 68f
12:06 14 16 mph 1018.9mb 68f
12:00 15 18 mph 1018.8mb 68f
Qua 06/28 11:54 16 20 mph 1018.7mb 68f
11:48 16 18 mph 1018.7mb 68f
11:42 17 20 mph 1018.6mb 68f
11:36 17 21 mph 1018.6mb 68f
11:30 17 21 mph 1018.6mb 68f
11:24 17 20 mph 1018.6mb 68f
11:18 16 18 mph 1018.6mb 68f
11:12 16 21 mph 1018.6mb 68f
11:06 16 18 mph 1018.5mb 68f
11:00 17 20 mph 1018.4mb 69f
10:54 18 20 mph 1018.3mb 69f
10:48 17 21 mph 1018.3mb 69f
10:42 17 20 mph 1018.3mb 69f
10:36 17 20 mph 1018.3mb 69f
10:30 17 22 mph 1018.3mb 69f
10:24 17 21 mph 1018.3mb 69f
10:18 17 21 mph 1018.3mb 69f
10:12 17 21 mph 1018.2mb 69f
10:06 18 21 mph 1018.2mb 69f
10:00 15 18 mph 1018.2mb 69f
9:48 15 18 mph 1018.1mb 70f
9:42 15 18 mph 1018.1mb 70f
9:36 14 17 mph 1018.1mb 70f
9:30 14 18 mph 1018mb 70f
9:24 14 17 mph 1018mb 70f
9:18 16 18 mph 1017.9mb 70f
9:12 17 22 mph 1017.7mb 70f
9:06 18 21 mph 1017.6mb 71f
9:00 18 21 mph 1017.4mb 71f
8:48 17 20 mph 1017.4mb 71f
8:42 16 20 mph 1017.4mb 71f
8:36 16 20 mph 1017.4mb 71f
8:30 14 17 mph 1017.3mb 71f
8:24 14 17 mph 1017.2mb 72f
8:18 14 16 mph 1017.1mb 72f
8:12 10 13 mph 1017mb 72f
8:06 10 13 mph 1017mb 73f
8:00 7 9 mph 1017mb 73f
7:48 7 9 mph 1017mb 73f
7:42 9 11 mph 1017mb 73f
7:36 11 14 mph 1016.9mb 73f
7:30 14 17 mph 1016.8mb 74f
7:24 14 16 mph 1016.8mb 75f
7:18 13 15 mph 1016.8mb 76f
7:12 14 17 mph 1016.7mb 76f
7:06 15 18 mph 1016.7mb 76f
7:00 14 16 mph 1016.7mb 76f
6:48 8 10 mph 1016.5mb 76f
6:42 10 11 mph 1016.5mb 75f
6:36 11 14 mph 1016.5mb 76f
6:30 15 16 mph 1016.4mb 75f
6:24 15 16 mph 1016.5mb 75f
6:18 13 18 mph 1016.4mb 75f
6:12 11 15 mph 1016.2mb 76f
6:06 14 16 mph 1016.2mb 75f
6:00 14 18 mph 1016.1mb 75f
5:48 14 17 mph 1016.2mb 76f
5:42 11 17 mph 1016.1mb 76f
5:36 14 17 mph 1016mb 75f
5:30 13 15 mph 1016mb 75f
5:24 11 14 mph 1016.1mb 75f
5:18 15 17 mph 1016mb 75f
5:12 15 21 mph 1016.1mb 75f
5:06 14 17 mph 1016mb 75f
5:00 10 13 mph 1015.9mb 75f
4:54 10 11 mph 1016mb 75f
4:48 11 15 mph 1015.8mb 76f
4:42 11 18 mph 1015.8mb 75f
4:36 13 15 mph 1015.7mb 75f
4:30 14 17 mph 1015.9mb 75f
4:24 14 17 mph 1016.1mb 74f
4:18 18 20 mph 1016.2mb 74f
4:12 16 20 mph 1016.4mb 74f
4:06 18 22 mph 1016.6mb 75f
4:00 20 24 mph 1016.6mb 74f
3:54 16 20 mph 1016.6mb 74f
3:48 17 21 mph 1016.9mb 74f
3:42 16 21 mph 1016.9mb 74f
3:36 15 20 mph 1017.1mb 74f
3:30 16 24 mph 1017mb 74f
3:24 17 22 mph 1017.1mb 74f
3:18 18 22 mph 1017.1mb 74f
3:12 17 22 mph 1017.2mb 74f
3:06 15 20 mph 1017mb 74f
3:00 16 21 mph 1016.8mb 74f
2:48 17 21 mph 1017mb 74f
2:42 18 24 mph 1017mb 74f
2:36 14 17 mph 1016.9mb 75f
2:30 15 21 mph 1017mb 74f
2:24 15 20 mph 1016.9mb 74f
2:18 15 20 mph 1016.8mb 74f
2:12 11 17 mph 1016.7mb 75f
2:06 15 21 mph 1016.7mb 75f
2:00 15 20 mph 1016.7mb 74f
1:54 15 20 mph 1016.6mb 74f
1:48 14 17 mph 1016.6mb 73f
1:42 13 20 mph 1016.5mb 73f
1:36 14 17 mph 1016.6mb 74f
1:30 17 23 mph 1016.6mb 73f
1:24 18 23 mph 1016.6mb 73f
1:18 18 23 mph 1016.5mb 73f
1:12 16 22 mph 1016.4mb 74f
1:06 16 23 mph 1016.4mb 73f
1:00 14 22 mph 1016.3mb 73f
12:54 17 23 mph 1016.3mb 72f
12:48 18 22 mph 1016.3mb 72f
12:42 11 16 mph 1016.3mb 73f
12:36 17 23 mph 1016.3mb 72f
12:30 14 17 mph 1016.2mb 72f
12:24 14 18 mph 1016.3mb 72f
12:18 15 18 mph 1016.3mb 71f
12:12 11 15 mph 1016.3mb 72f
12:06 11 18 mph 1016.3mb 71f
12:00 8 11 mph 1016.3mb 71f
11:54 15 20 mph 1016.4mb 71f
11:48 9 13 mph 1016.4mb 70f
11:42 7 10 mph 1016.3mb 71f
11:36 10 14 mph 1016.4mb 70f
11:30 10 14 mph 1016.3mb 70f
11:24 10 14 mph 1016.3mb 70f
11:18 8 10 mph 1016.3mb 69f
11:12 11 15 mph 1016.2mb 69f
11:06 7 10 mph 1016.2mb 69f
11:00 11 13 mph 1016.1mb 69f
10:54 10 14 mph 1016.1mb 69f
10:48 7 9 mph 1016.1mb 69f
10:42 9 11 mph 1016.2mb 68f
10:36 8 13 mph 1016.3mb 68f
10:30 10 15 mph 1016.2mb 68f
10:24 11 15 mph 1016.3mb 68f
10:18 14 18 mph 1016.3mb 68f
10:12 11 16 mph 1016.3mb 68f
10:06 14 18 mph 1016.3mb 67f
10:00 15 18 mph 1016.4mb 68f
9:54 15 18 mph 1016.4mb 68f
9:48 11 15 mph 1016.3mb 67f
9:42 14 17 mph 1016.3mb 67f
9:36 16 21 mph 1016.4mb 67f
9:30 16 20 mph 1016.4mb 67f
9:24 15 17 mph 1016.5mb 67f
9:18 16 21 mph 1016.5mb 67f
9:12 15 20 mph 1016.5mb 66f
9:06 17 22 mph 1016.5mb 66f
9:00 15 20 mph 1016.4mb 66f
8:54 16 21 mph 1016.5mb 66f
8:48 16 20 mph 1016.4mb 66f
8:42 16 21 mph 1016.4mb 66f
8:36 16 21 mph 1016.4mb 66f
8:30 14 18 mph 1016.4mb 66f
8:24 15 20 mph 1016.3mb 65f
8:18 13 16 mph 1016.3mb 66f
8:12 11 16 mph 1016.3mb 65f
8:06 14 16 mph 1016.2mb 65f
8:00 13 16 mph 1016.2mb 65f
7:54 11 15 mph 1016.2mb 64f
7:48 11 15 mph 1016.1mb 64f
7:42 11 14 mph 1016.1mb 64f
7:36 10 13 mph 1016.2mb 63f
7:30 13 17 mph 1016.3mb 63f
7:24 9 14 mph 1016.3mb 63f
7:18 10 14 mph 1016.3mb 63f
7:12 9 11 mph 1016.2mb 63f
7:06 10 13 mph 1016.2mb 63f
7:00 10 13 mph 1016.3mb 62f
6:54 10 13 mph 1016.3mb 63f
6:48 10 14 mph 1016.3mb 63f
6:42 10 13 mph 1016.3mb 63f
6:36 10 13 mph 1016.2mb 63f
6:30 11 14 mph 1016.2mb 63f
6:24 11 14 mph 1016.2mb 63f
6:18 9 11 mph 1016.1mb 63f
6:12 8 9 mph 1016.1mb 62f
6:06 7 8 mph 1016mb 62f
6:00 7 8 mph 1016mb 62f
5:54 7 8 mph 1016mb 61f
5:48 3 6 mph 1015.9mb 61f
5:42 3 6 mph 1015.8mb 61f
5:36 5 6 mph 1015.7mb 61f
5:30 6 7 mph 1015.7mb 61f
5:24 6 7 mph 1015.7mb 61f
5:18 6 7 mph 1015.6mb 61f
5:12 6 8 mph 1015.5mb 61f
5:06 6 8 mph 1015.5mb 61f
5:00 7 8 mph 1015.4mb 61f
4:54 7 9 mph 1015.4mb 61f
4:48 6 7 mph 1015.3mb 62f
4:42 7 8 mph 1015.3mb 62f
4:36 6 8 mph 1015.2mb 62f
4:30 5 7 mph 1015.1mb 62f
4:24 6 7 mph 1015mb 62f
4:18 6 7 mph 1014.9mb 62f
4:12 7 8 mph 1014.9mb 62f
4:06 8 10 mph 1014.9mb 63f
4:00 7 8 mph 1014.9mb 63f
3:54 6 7 mph 1014.8mb 63f
3:48 5 6 mph 1014.8mb 63f
3:42 7 8 mph 1014.8mb 63f
3:36 7 9 mph 1014.8mb 63f
3:30 6 8 mph 1014.8mb 63f
3:24 7 9 mph 1015mb 63f
3:18 7 10 mph 1015mb 63f
3:12 5 6 mph 1014.9mb 63f
3:06 6 7 mph 1014.8mb 63f
3:00 6 6 mph 1014.7mb 63f
2:54 5 6 mph 1014.7mb 62f
2:48 3 6 mph - -
2:42 5 6 mph - -
2:36 6 7 mph - -
2:30 7 8 mph 1014.5mb 63f
2:24 6 8 mph 1014.4mb 63f
2:18 5 7 mph 1014.4mb 63f
2:12 6 7 mph 1014.4mb 62f
2:06 1 3 mph 1014.4mb 63f
2:00 5 7 mph 1014.4mb 63f
1:54 5 7 mph 1014.4mb 63f
1:48 5 6 mph 1014.5mb -
1:42 6 7 mph 1014.6mb -
1:36 6 7 mph 1014.6mb -
1:30 5 8 mph 1014.7mb 64f
1:24 5 7 mph 1014.6mb 64f
1:18 7 9 mph 1014.7mb 65f
1:12 7 9 mph 1014.7mb 65f
1:06 8 11 mph 1014.8mb 65f
1:00 8 10 mph 1014.8mb 65f
12:54 8 10 mph 1014.9mb 65f
12:48 7 9 mph 1014.9mb 65f
12:42 8 10 mph 1014.9mb 65f
12:36 8 10 mph 1014.9mb 66f
12:30 7 9 mph 1014.8mb 66f
12:24 9 10 mph 1014.8mb 66f
12:18 6 7 mph 1014.8mb 66f
12:12 7 9 mph 1014.8mb 66f
12:06 8 10 mph 1014.7mb 66f
12:00 6 8 mph 1014.8mb 66f
Ter 06/27 11:54 2 5 mph 1014.7mb 66f
11:48 2 3 mph 1014.6mb 66f
11:42 3 3 mph 1014.5mb 66f
11:36 1 2 mph 1014.4mb 66f
11:30  -  0 mph 1014.3mb 66f
11:24  -  0 mph 1014.3mb 66f
11:18  -  1 mph 1014.3mb 66f
11:12 1 2 mph 1014.2mb 66f
11:06 2 2 mph 1014.1mb 66f
11:00 2 2 mph 1014.1mb 66f
10:54 2 3 mph 1014mb 67f
10:48 2 2 mph 1014mb 67f
10:42 2 3 mph 1013.9mb 67f
10:36 3 5 mph 1013.9mb 67f
10:30 5 5 mph 1013.9mb 67f
10:24 3 5 mph 1013.9mb 67f
10:18 5 7 mph 1013.8mb 67f
10:12 5 7 mph 1013.8mb 68f
10:06 7 9 mph 1013.8mb 68f
10:00 8 9 mph 1013.8mb 68f
9:54 7 9 mph 1013.8mb 68f
9:48 9 11 mph 1013.8mb 69f
9:42 10 13 mph 1013.8mb 69f
9:36 10 14 mph 1013.9mb 69f
9:30 11 14 mph 1013.9mb 70f
9:24 15 20 mph 1013.8mb 69f
9:18 14 25 mph 1013.5mb 69f
9:12 14 16 mph 1013.2mb 69f
9:06 15 18 mph 1013mb 69f
9:00 15 17 mph 1012.9mb 69f
8:54 10 14 mph 1012.8mb 69f
8:48 9 13 mph 1012.6mb 69f
8:42 13 15 mph 1012.5mb 69f
8:36 13 16 mph 1012.4mb 69f
8:30 13 15 mph 1012.4mb 69f
8:24 15 18 mph 1012.3mb 69f
8:18 15 18 mph 1012.2mb 69f
8:12 13 16 mph 1012.2mb 69f
8:06 13 17 mph 1012.3mb 69f
8:00 13 16 mph 1012.3mb 69f
7:54 14 18 mph 1012.3mb 69f
7:48 13 16 mph 1012.2mb 69f
7:42 13 17 mph 1012.1mb 70f
7:36 11 15 mph 1012mb 70f
7:30 14 18 mph 1012mb 70f
7:24 17 22 mph 1011.9mb 71f
7:18 14 20 mph 1011.9mb 71f
7:12 15 21 mph 1012mb 71f
7:06 15 21 mph 1012.1mb 71f
7:00 17 20 mph 1012.2mb 71f
6:54 15 20 mph 1012.3mb 71f
6:48 18 23 mph 1012.2mb 71f
6:42 16 21 mph 1012.2mb 71f
6:36 18 26 mph 1012mb 71f
6:30 17 22 mph 1012mb 72f
6:24 16 21 mph 1012mb 72f
6:18 18 23 mph 1012mb 72f
6:12 15 22 mph 1012mb 72f
6:06 17 23 mph 1012mb 72f
6:00 17 22 mph 1012.1mb 72f
5:54 18 25 mph 1012.2mb 72f
5:48 17 22 mph 1012.2mb 72f
5:42 21 24 mph 1012.1mb 72f
5:36 21 26 mph 1012mb 72f
5:30 17 25 mph 1012.2mb 73f
5:24 17 23 mph 1012.2mb 73f
5:18 17 23 mph 1012.3mb 73f
5:12 17 23 mph 1012.3mb 73f
5:06 18 22 mph 1012.4mb 72f
5:00 23 30 mph 1012.3mb 72f
4:54 22 26 mph 1012.4mb 72f
4:48 23 29 mph 1012.3mb 72f
4:42 22 29 mph 1012.3mb 73f
4:36 18 30 mph 1012.4mb 73f
4:30 25 32 mph 1012.2mb 73f
4:24 21 31 mph 1012.3mb 73f
4:18 21 28 mph 1012.2mb 73f
4:12 18 24 mph 1012.4mb 73f
4:06 21 25 mph 1012.5mb 73f
4:00 20 26 mph 1012.4mb 73f
3:54 21 28 mph 1012.5mb 72f
3:48 16 22 mph 1012.7mb 72f
3:42 22 30 mph 1012.6mb 72f
3:36 21 30 mph 1012.9mb 72f
3:30 21 26 mph 1013mb 71f
3:24 18 25 mph 1013.1mb 71f
3:18 18 24 mph 1013.3mb 71f
3:12 20 29 mph 1013.4mb 71f
3:06 21 28 mph 1013.5mb 71f
3:00 21 29 mph 1013.6mb 71f
2:54 18 25 mph 1013.6mb 71f
2:48 16 23 mph 1013.8mb 71f
2:42 16 22 mph 1013.8mb 70f
2:36 16 22 mph 1013.9mb 70f
2:30 11 15 mph 1014mb 70f
2:24 15 21 mph 1014.1mb 70f
2:18 14 18 mph 1014.2mb 70f
2:12 13 17 mph 1014.3mb 70f
2:06 11 17 mph 1014.5mb 69f
2:00 15 20 mph 1014.4mb 69f
1:54 14 18 mph 1014.3mb 69f
1:48 13 17 mph 1014.3mb 70f
1:42 14 16 mph 1014.3mb 70f
1:36 10 14 mph 1014.5mb 70f
1:30 9 13 mph 1014.5mb 70f
1:24 9 13 mph 1014.5mb 70f
1:18 7 10 mph 1014.5mb 70f
1:12 8 10 mph 1014.6mb 69f
1:06 6 8 mph 1014.7mb 69f
1:00 5 6 mph 1014.7mb 69f
12:54 6 6 mph 1014.8mb 69f
12:48 7 8 mph 1015.1mb 69f
12:42 8 10 mph 1015.1mb 69f
12:36 9 10 mph 1015mb 70f
12:30 6 9 mph 1014.9mb 72f
12:24 5 6 mph 1014.8mb 71f
12:18 5 7 mph 1014.5mb 71f
12:12 6 8 mph 1014.3mb 71f
12:06 7 9 mph 1014.4mb 72f
12:00 5 8 mph 1014.5mb 71f
11:54 3 8 mph 1014.5mb 70f
11:48 6 8 mph 1014.8mb 69f
11:42 5 8 mph 1014.9mb 69f
11:36 8 10 mph 1014.9mb 69f
11:30 10 13 mph 1015.1mb 69f
11:24 6 8 mph 1015.5mb 69f
11:18 7 8 mph 1015.7mb 69f
11:12 5 6 mph 1015.7mb 68f
11:06 3 6 mph 1015.6mb 68f
11:00 7 9 mph 1015.8mb 68f
10:54 9 11 mph 1016mb 68f
10:48 9 10 mph 1015.9mb 69f
10:42 10 13 mph 1015.8mb 69f
10:36 9 11 mph 1015.8mb 69f
10:30 10 11 mph 1015.8mb 69f
10:24 8 11 mph 1015.7mb 69f
10:18 13 16 mph 1015.5mb 69f
10:12 10 13 mph 1015.4mb 69f
10:06 9 11 mph 1015.4mb 69f
10:00 10 11 mph 1015.4mb 69f
9:54 11 14 mph 1015.5mb 70f
9:48 5 8 mph 1015.4mb 70f
9:42 6 7 mph 1015.4mb 70f
9:36 6 6 mph 1015.4mb 70f
9:30 6 7 mph 1015.3mb 69f
9:24 6 6 mph 1015.3mb 69f
9:18 6 7 mph 1015.3mb 69f
9:12 7 8 mph 1015.4mb 69f
9:06 7 7 mph 1015.3mb 68f
9:00 6 6 mph 1015.2mb 68f
8:54 7 8 mph 1015.3mb 68f
8:48 7 8 mph 1015.3mb 68f
8:42 7 8 mph 1015.4mb 68f
8:36 6 8 mph 1015.5mb 68f
8:30 6 6 mph 1015.5mb 67f
8:24 5 6 mph 1015.5mb 67f
8:18 6 7 mph 1015.5mb 67f
8:12 6 7 mph 1015.5mb 67f
8:06 5 6 mph 1015.4mb 67f
8:00 6 7 mph 1015.5mb 67f
7:54 5 6 mph 1015.4mb 66f
7:48 6 7 mph 1015.4mb 66f
7:42 6 6 mph 1015.5mb 66f
7:36 5 6 mph 1015.4mb 66f
7:30 7 8 mph 1015.5mb 66f
7:24 6 7 mph 1015.5mb 66f
7:18 6 7 mph 1015.5mb 66f
7:12 7 8 mph 1015.5mb 66f
7:06 7 8 mph 1015.4mb 66f
7:00 7 8 mph 1015.5mb 66f
6:54 7 9 mph 1015.4mb 66f
6:48 6 7 mph 1015.3mb 66f
6:42 6 7 mph 1015.4mb 66f
6:36 7 7 mph 1015.4mb 66f
6:30 5 6 mph 1015.3mb 66f
6:24 3 5 mph 1015.2mb 66f
6:18 3 5 mph 1015.2mb 65f
6:12 5 6 mph 1015.1mb 66f
6:06 5 7 mph 1015.2mb 66f
6:00 6 8 mph 1015.1mb 65f
5:54 6 7 mph 1015.1mb 65f
5:48 5 6 mph 1015.2mb 65f
5:42  -  2 mph 1015.1mb 65f
5:36  -  2 mph 1015.1mb 65f
5:30 2 3 mph 1015.1mb 65f
5:24  -  1 mph 1015.1mb 65f
5:18  -  2 mph 1015.1mb 65f
5:12 3 5 mph 1015mb 65f
5:06 3 5 mph 1015.2mb 65f
5:00 2 3 mph 1015.2mb 65f
4:54 2 3 mph 1015.1mb 66f
4:48  -  1 mph 1015.1mb 65f
4:42 2 3 mph 1015.2mb 65f
4:36 2 3 mph 1015mb 65f
4:30 2 3 mph 1015mb 65f
4:24 2 3 mph 1014.9mb 65f
4:18 2 5 mph 1014.9mb 65f
4:12 3 5 mph 1014.8mb 66f
4:06 6 6 mph 1014.9mb 65f
4:00 6 7 mph 1015mb 66f
3:54 6 6 mph 1014.9mb 66f
3:48 6 7 mph 1014.9mb 66f
3:42 6 7 mph 1014.9mb 66f
3:36 6 7 mph 1014.9mb 66f
3:30 5 6 mph 1014.9mb 66f
3:24 3 5 mph 1014.8mb 66f
3:18 3 5 mph 1014.8mb 66f
3:12 3 5 mph 1014.8mb 66f
3:06  -  1 mph 1014.8mb 66f
3:00  -  1 mph 1014.9mb 66f
2:54  -  2 mph 1014.9mb 67f
2:48 2 5 mph 1014.9mb 67f
2:42 2 3 mph 1014.9mb 67f
2:36 2 3 mph 1014.8mb 67f
2:30  -  1 mph 1014.8mb 67f
2:24 2 3 mph 1014.7mb 67f
2:18 3 5 mph 1014.7mb 67f
2:12 5 6 mph 1014.7mb 67f
2:06 6 6 mph 1014.7mb 67f
2:00 3 5 mph 1014.8mb 68f
1:54 5 6 mph 1014.9mb 68f
1:48 5 6 mph 1014.8mb 68f
1:42 5 6 mph 1014.9mb 68f
1:36 6 7 mph 1014.9mb 68f
1:30 6 6 mph 1015mb 68f
1:24 3 6 mph 1015.1mb 68f
1:18 3 5 mph 1015.2mb 68f
1:12 5 6 mph 1015.1mb 68f
1:06 6 8 mph 1015.1mb 68f
1:00 7 10 mph 1015.1mb 67f
12:54 6 8 mph 1015.1mb 67f
12:48 7 8 mph 1015.2mb 67f
12:42 6 7 mph 1015.1mb 67f
12:36 6 8 mph 1015.1mb 68f
12:30 9 14 mph 1015.1mb 68f
12:24 6 7 mph 1015.1mb 67f
12:18 7 10 mph 1015.1mb 68f
12:12 8 11 mph 1015.1mb 69f
12:06 13 15 mph 1015mb 68f
12:00 13 15 mph 1015.1mb 68f
Seg 06/26 11:54 10 15 mph 1015.1mb 68f
11:48 10 15 mph 1015.2mb 68f
11:42 9 14 mph 1015.2mb 68f
11:36 9 13 mph 1015.1mb 67f
11:30 9 11 mph 1015.1mb 68f
11:24 9 11 mph 1015mb 68f
11:18 10 14 mph 1014.9mb 68f
11:12 10 13 mph 1014.9mb 68f
11:06 10 13 mph 1014.9mb 68f
11:00 9 11 mph 1014.9mb 68f
10:54 8 10 mph 1015mb 68f
10:48 8 10 mph 1014.9mb 68f
10:42 10 14 mph 1014.9mb 68f
10:36 10 14 mph 1014.9mb 68f
10:30 9 13 mph 1014.9mb 68f
10:24 9 13 mph 1014.8mb 68f
10:18 9 11 mph 1014.8mb 68f
10:12 10 11 mph 1014.8mb 68f
10:06 10 14 mph 1014.8mb 68f
10:00 13 15 mph 1014.7mb 69f
9:54 13 15 mph 1014.7mb 69f
9:48 11 16 mph 1014.7mb 69f
9:42 13 15 mph 1014.6mb 69f
9:36 11 15 mph 1014.5mb 68f
9:30 11 15 mph 1014.5mb 69f
9:24 11 15 mph 1014.5mb 69f
9:18 11 14 mph 1014.5mb 69f
9:12 11 16 mph 1014.4mb 69f
9:06 9 14 mph 1014.4mb 69f
9:00 9 11 mph 1014.4mb 70f
8:54 8 11 mph 1014.4mb 70f
8:48 11 15 mph 1014.3mb 71f
8:42 9 11 mph 1014.3mb 71f
8:36 10 14 mph 1014.2mb 71f
8:30 10 13 mph 1014.2mb 71f
8:24 10 14 mph 1014.2mb 71f
8:18 11 16 mph 1014.1mb 71f
8:12 11 15 mph 1014.1mb 71f
8:06 11 16 mph 1014.1mb 72f
8:00 11 14 mph 1014.1mb 72f
7:54 13 16 mph 1014mb 72f
7:48 13 16 mph 1014.1mb 72f
7:42 16 20 mph 1014mb 72f
7:36 15 20 mph 1014mb 73f
7:30 16 20 mph 1013.9mb 73f
7:24 18 21 mph 1013.8mb 73f
7:18 18 21 mph 1013.8mb 73f
7:12 18 21 mph 1013.8mb 73f
7:06 17 22 mph 1013.8mb 73f
7:00 17 21 mph 1013.8mb 73f
6:54 18 21 mph 1013.8mb 73f
6:48 17 21 mph 1013.8mb 73f
6:42 20 23 mph 1013.7mb 73f
6:36 17 21 mph 1013.7mb 73f
6:30 17 22 mph 1013.6mb 73f
6:24 16 21 mph 1013.6mb 73f
6:18 17 21 mph 1013.5mb 73f
6:12 15 18 mph 1013.5mb 73f
6:06 17 22 mph 1013.5mb 73f
6:00 20 22 mph 1013.4mb 73f
5:54 20 24 mph 1013.4mb 73f
5:48 18 24 mph 1013.5mb 73f
5:42 16 21 mph 1013.5mb 73f
5:36 14 21 mph 1013.5mb 73f
5:30 17 22 mph 1013.4mb 73f
5:24 16 21 mph 1013.5mb 73f
5:18 22 24 mph 1013.4mb 73f
5:12 17 22 mph 1013.5mb 73f
5:06 16 20 mph 1013.5mb 73f
5:00 18 23 mph 1013.6mb 73f
4:54 21 26 mph 1013.5mb 72f
4:48 22 28 mph 1013.5mb 72f
4:42 21 25 mph 1013.5mb 72f
4:36 22 28 mph 1013.6mb 73f
4:30 21 25 mph 1013.6mb 73f
4:24 21 24 mph 1013.5mb 73f
4:18 17 21 mph 1013.6mb 73f
4:12 20 24 mph 1013.7mb 73f
4:06 17 23 mph 1013.7mb 73f
4:00 20 24 mph 1013.6mb 73f
3:54 21 24 mph 1013.7mb 73f
3:48 20 23 mph 1013.7mb 73f
3:42 20 24 mph 1013.7mb 73f
3:36 20 23 mph 1013.7mb 73f
3:30 22 25 mph 1013.6mb 72f
3:24 17 22 mph 1013.8mb 73f
3:18 16 23 mph 1013.8mb 73f
3:12 16 21 mph 1013.8mb 74f
3:06 16 20 mph 1013.7mb 74f
3:00 16 21 mph 1013.8mb 73f
2:54 15 18 mph 1013.8mb 74f
2:48 17 21 mph 1013.8mb 73f
2:42 17 20 mph 1013.8mb 73f
2:36 15 18 mph 1013.9mb 73f
2:30 14 16 mph 1014mb 73f
2:24 15 17 mph 1014mb 73f
2:18 9 14 mph 1014.1mb 74f
2:12 11 16 mph 1014mb 74f
2:06 10 14 mph 1014mb 74f
2:00 13 15 mph 1014mb 74f
1:54 10 17 mph 1014mb 74f
1:48 14 16 mph 1014mb 74f
1:42 14 17 mph 1014.1mb 74f
1:36 14 16 mph 1014.1mb 73f
1:30 10 15 mph 1014.2mb 74f
1:24 5 8 mph 1014.3mb 74f
1:18 7 9 mph 1014.3mb 73f
1:12 9 14 mph 1014.4mb 73f
1:06 8 10 mph 1014.5mb 73f
1:00 8 10 mph 1014.5mb 73f
12:54 8 10 mph 1014.5mb 73f
12:48 7 10 mph 1014.6mb 73f
12:42 9 11 mph 1014.6mb 73f
12:36 11 14 mph 1014.5mb 73f
12:30 11 16 mph 1014.6mb 73f
12:24 10 15 mph 1014.6mb 72f
12:18 9 11 mph 1014.7mb 72f
12:12 7 9 mph 1014.8mb 72f
12:06 6 8 mph 1014.8mb 72f
12:00 8 10 mph 1014.8mb 72f
11:54 14 16 mph 1014.8mb 72f
11:48 9 10 mph 1014.8mb 72f
11:42 13 16 mph 1014.8mb 72f
11:36 10 13 mph 1014.9mb 71f
11:30 14 17 mph 1014.9mb 71f
11:24 13 16 mph 1014.9mb 71f
11:18 8 9 mph 1014.9mb 71f
11:12 8 10 mph 1014.8mb 71f
11:06 9 11 mph 1014.9mb 71f
11:00 7 9 mph 1014.9mb 71f
10:54 10 14 mph 1015mb 71f
10:48 6 9 mph 1015mb 72f
10:42 8 9 mph 1015.1mb 71f
10:36 9 14 mph 1015.1mb 71f
10:30 8 14 mph 1015.1mb 71f
10:24 8 11 mph 1015.1mb 70f
10:18 10 13 mph 1015.2mb 71f
10:12 9 13 mph 1015.2mb 70f
10:06 11 16 mph 1015.2mb 70f
10:00 10 14 mph 1015.2mb 70f
9:54 10 15 mph 1015.2mb 70f
9:48 9 13 mph 1015.2mb 70f
9:42 11 14 mph 1015.2mb 70f
9:36 9 11 mph 1015.1mb 70f
9:30 7 9 mph 1015.1mb 70f
9:24 10 13 mph 1015.2mb 70f
9:18 11 14 mph 1015.2mb 70f
9:12 10 14 mph 1015.1mb 70f
9:06 11 16 mph 1015.1mb 70f
9:00 11 16 mph 1015.1mb 70f
8:54 9 10 mph 1015mb 69f
8:48 11 13 mph 1015mb 70f
8:42 6 9 mph 1015mb 69f
8:36 7 9 mph 1015mb 68f
8:30 6 7 mph 1015mb 68f
8:24 8 11 mph 1014.9mb 68f
8:18 6 8 mph 1014.9mb 68f
8:12 6 8 mph 1014.9mb 67f
8:06 8 10 mph 1014.8mb 67f
8:00 8 9 mph 1014.9mb 67f
7:54 5 6 mph 1014.8mb 67f
7:48 8 9 mph 1014.8mb 67f
7:42 7 8 mph 1014.7mb 66f
7:36 7 8 mph 1014.7mb 66f
7:30 8 9 mph 1014.7mb 66f
7:24 6 8 mph 1014.7mb 66f
7:18 8 9 mph 1014.7mb 66f
7:12 8 10 mph 1014.7mb 66f
7:06 5 8 mph 1014.7mb 66f
7:00 3 6 mph 1014.7mb 65f
6:54 5 7 mph 1014.6mb 65f
6:48 6 7 mph 1014.6mb 65f
6:42 6 7 mph 1014.6mb 65f
6:36 6 8 mph 1014.7mb 65f
6:30 6 8 mph 1014.6mb 65f
6:24 7 9 mph 1014.6mb 65f
6:18 7 8 mph 1014.6mb 65f
6:12 6 8 mph 1014.5mb 66f
6:06 9 11 mph 1014.5mb 66f
6:00 7 8 mph 1014.4mb 66f
5:54 8 10 mph 1014.3mb 66f
5:48 9 11 mph 1014.2mb 66f
5:42 8 10 mph 1014mb 67f
5:36 6 7 mph 1013.9mb 66f
5:30 7 8 mph 1013.7mb 67f
5:24 6 8 mph 1013.6mb 67f
5:18 6 8 mph 1013.6mb 66f
5:12 6 8 mph 1013.5mb 66f
5:06 5 6 mph 1013.4mb 66f
5:00 5 6 mph 1013.3mb 66f
4:54 5 6 mph 1013.2mb 66f
4:48 3 5 mph 1013.1mb 65f
4:42 2 3 mph 1013mb 66f
4:36 3 5 mph 1012.9mb 65f
4:30 2 3 mph 1012.8mb 65f
4:24 2 2 mph 1012.9mb 65f
4:18 2 5 mph 1012.8mb 65f
4:12 2 3 mph 1012.8mb 65f
4:06 3 5 mph 1012.8mb 65f
4:00 2 3 mph 1012.8mb 65f
3:54 1 2 mph 1012.9mb 65f
3:48 3 5 mph 1012.9mb 65f
3:42 3 6 mph 1012.9mb 65f
3:36 5 8 mph 1013mb 65f
3:30 6 8 mph 1013mb 66f
3:24 6 7 mph 1013mb 66f
3:18 5 6 mph 1012.9mb 66f
3:12 7 9 mph 1013mb 66f
3:06 3 6 mph 1013mb 66f
3:00 5 6 mph 1013mb 66f
2:54 5 6 mph 1013.1mb 66f
2:48 5 6 mph 1013.1mb -
2:42 6 6 mph 1013.1mb -
2:36 6 7 mph 1013.1mb -
2:30 6 7 mph 1013mb 66f
2:24 6 8 mph 1013mb 66f
2:18 5 7 mph 1013mb 66f
2:12 2 5 mph 1013mb 66f
2:06 3 6 mph 1013mb 66f
2:00 3 6 mph 1013mb 66f
1:54 3 5 mph 1013mb 66f
1:48 3 5 mph 1013.1mb 66f
1:42 5 6 mph 1013.2mb 66f
1:36 6 7 mph 1013.3mb 67f
1:30 5 7 mph 1013.2mb 67f
1:24 5 7 mph 1013.3mb 67f
1:18 3 6 mph 1013.3mb 67f
1:12 5 7 mph 1013.3mb 67f
1:06 5 8 mph 1013.2mb 67f
1:00 6 7 mph 1013mb 67f
12:54 5 6 mph 1013mb 67f
12:48 6 7 mph 1013mb 68f
12:42 6 9 mph 1013mb 68f
12:36 5 7 mph 1013.1mb 68f
12:30 3 6 mph 1013.2mb 68f
12:24 5 6 mph 1013.3mb 69f
12:18 5 6 mph 1013.1mb 69f
12:12 5 6 mph 1013.2mb 69f
12:06 5 6 mph 1013.2mb 69f
12:00 3 6 mph 1013.1mb 69f
Dom 06/25 11:54 6 7 mph 1013.1mb 70f
11:48 5 7 mph 1013.2mb 70f
11:42 2 3 mph 1013.1mb 70f
11:36 3 5 mph 1013.1mb 70f
11:30 3 6 mph 1013mb 70f
11:24 5 6 mph 1013mb 70f
11:18 7 9 mph 1013mb 70f
11:12 9 11 mph 1013mb 71f
11:06 13 14 mph 1012.8mb 71f
11:00 14 15 mph 1012.5mb 71f
10:54 13 15 mph 1012.5mb 71f
10:48 14 16 mph 1012.4mb 71f
10:42 17 18 mph 1012.4mb 71f
10:36 15 18 mph 1012.5mb 71f
10:30 15 17 mph 1012.4mb 71f
10:24 15 17 mph 1012.4mb 71f
10:18 16 20 mph 1012.5mb 71f
10:12 17 21 mph 1012.5mb 71f
10:06 17 21 mph 1012.5mb 71f
10:00 17 23 mph 1012.6mb 71f
9:54 14 21 mph 1012.6mb 71f
9:48 11 15 mph 1012.5mb 71f
9:42 11 16 mph 1012.5mb 71f
9:36 14 17 mph 1012.4mb 71f
9:30 13 16 mph 1012.4mb 71f
9:24 13 16 mph 1012.4mb 71f
9:18 11 14 mph 1012.4mb 71f
9:12 13 16 mph 1012.4mb 72f
9:06 13 16 mph 1012.4mb 72f
9:00 13 18 mph 1012.3mb 72f
8:54 14 17 mph 1012.2mb 73f
8:48 14 18 mph 1012.2mb 73f
8:42 13 17 mph 1012.2mb 73f
8:36 13 15 mph 1012.3mb 73f
8:30 13 17 mph 1012.4mb 73f
8:24 11 15 mph 1012.3mb 73f
8:18 10 13 mph 1012.3mb 74f
8:12 13 16 mph 1012.4mb 74f
8:06 14 17 mph 1012.4mb 74f
8:00 10 14 mph 1012.3mb 75f
7:54 10 14 mph 1012.3mb 75f
7:48 9 13 mph 1012.3mb 75f
7:42 11 15 mph 1012.3mb 75f
7:36 8 11 mph 1012.3mb 75f
7:30 6 10 mph 1012.3mb 75f
7:24 6 8 mph 1012.3mb 75f
7:12 6 6 mph 1012.2mb 75f
7:06 6 8 mph 1012.1mb 75f
7:00 6 7 mph 1012.1mb 74f
6:54 2 3 mph 1012.1mb 74f
6:48 2 3 mph 1012.1mb 74f
6:42 2 3 mph 1012.2mb 75f
6:36 1 2 mph 1012.2mb 75f
6:30 3 6 mph 1012.3mb 74f
6:24 5 7 mph 1012.4mb 75f
6:18 10 14 mph 1012.5mb 74f
6:12 15 18 mph 1012.5mb 74f
6:06 15 20 mph 1012.1mb 74f
6:00 21 22 mph 1011.8mb 74f
5:54 22 25 mph 1011.8mb 74f
5:48 23 25 mph 1011.7mb 74f
5:42 24 26 mph 1011.5mb 74f
5:36 22 26 mph 1011.4mb 75f
5:30 22 25 mph 1011.3mb 75f
5:24 22 28 mph 1011.2mb 75f
5:18 21 24 mph 1011.1mb 76f
5:12 20 23 mph 1011.1mb 76f
5:06 17 24 mph 1011.1mb 77f
5:00 18 22 mph 1011mb 76f
4:54 22 24 mph 1011mb 76f
4:48 22 25 mph 1011mb 76f
4:42 20 25 mph 1011.1mb 77f
4:36 22 26 mph 1011mb 76f
4:30 18 23 mph 1011.2mb 77f
4:24 21 26 mph 1011.2mb 78f
4:18 20 26 mph 1011.1mb 78f
4:12 20 24 mph 1011.1mb 78f
4:06 15 20 mph 1011.2mb 78f
4:00 21 25 mph 1011.1mb 78f
3:54 21 26 mph 1011.1mb 78f
3:48 22 26 mph 1011.2mb 78f
3:42 21 26 mph 1011.1mb 78f
3:36 18 24 mph 1011.3mb 78f
3:30 21 25 mph 1011.2mb 79f
3:24 18 23 mph 1011.4mb 79f
3:18 16 21 mph 1011.6mb 79f
3:12 14 20 mph 1011.7mb 79f
3:06 17 22 mph 1011.6mb 79f
3:00 16 21 mph 1011.7mb 78f
2:54 14 21 mph 1011.9mb 78f
2:48 13 16 mph 1012mb 78f
2:42 16 21 mph 1012mb 78f
2:36 16 20 mph 1012.2mb 78f
2:30 15 18 mph 1012.2mb 78f
2:24 17 22 mph 1012.3mb 78f
2:18 16 20 mph 1012.3mb 78f
2:12 16 21 mph 1012.3mb 78f
2:06 17 21 mph 1012.4mb 78f